sensor_id;sensor_type;location;lat;lon;timestamp;temperature;humidity
148;DHT22;142;50.652;12.216;2022-08-25T00:01:26;18.30;70.90
148;DHT22;142;50.652;12.216;2022-08-25T00:03:53;18.30;71.00
148;DHT22;142;50.652;12.216;2022-08-25T00:06:21;18.30;71.20
148;DHT22;142;50.652;12.216;2022-08-25T00:08:48;18.30;71.10
148;DHT22;142;50.652;12.216;2022-08-25T00:11:18;18.30;71.00
148;DHT22;142;50.652;12.216;2022-08-25T00:13:50;18.30;70.90
148;DHT22;142;50.652;12.216;2022-08-25T00:16:19;18.30;70.90
148;DHT22;142;50.652;12.216;2022-08-25T00:18:53;18.30;70.90
148;DHT22;142;50.652;12.216;2022-08-25T00:21:21;18.20;70.80
148;DHT22;142;50.652;12.216;2022-08-25T00:23:49;18.10;70.90
148;DHT22;142;50.652;12.216;2022-08-25T00:26:17;18.10;71.20
148;DHT22;142;50.652;12.216;2022-08-25T00:28:46;18.10;71.10
148;DHT22;142;50.652;12.216;2022-08-25T00:31:15;18.10;71.30
148;DHT22;142;50.652;12.216;2022-08-25T00:33:43;18.10;71.30
148;DHT22;142;50.652;12.216;2022-08-25T00:36:10;18.10;71.30
148;DHT22;142;50.652;12.216;2022-08-25T00:38:38;18.10;71.30
148;DHT22;142;50.652;12.216;2022-08-25T00:41:05;18.10;71.40
148;DHT22;142;50.652;12.216;2022-08-25T00:43:35;18.10;71.30
148;DHT22;142;50.652;12.216;2022-08-25T00:46:13;18.10;71.20
148;DHT22;142;50.652;12.216;2022-08-25T00:48:45;18.00;71.20
148;DHT22;142;50.652;12.216;2022-08-25T00:51:17;18.00;71.20
148;DHT22;142;50.652;12.216;2022-08-25T00:53:46;18.00;71.30
148;DHT22;142;50.652;12.216;2022-08-25T00:56:14;17.90;71.30
148;DHT22;142;50.652;12.216;2022-08-25T00:58:41;18.00;71.30
148;DHT22;142;50.652;12.216;2022-08-25T01:01:10;17.90;71.20
148;DHT22;142;50.652;12.216;2022-08-25T01:03:38;17.90;71.00
148;DHT22;142;50.652;12.216;2022-08-25T01:06:05;17.80;71.10
148;DHT22;142;50.652;12.216;2022-08-25T01:08:34;17.80;71.20
148;DHT22;142;50.652;12.216;2022-08-25T01:11:04;17.80;71.40
148;DHT22;142;50.652;12.216;2022-08-25T01:13:34;17.80;71.40
148;DHT22;142;50.652;12.216;2022-08-25T01:16:02;17.80;71.30
148;DHT22;142;50.652;12.216;2022-08-25T01:18:42;17.80;71.30
148;DHT22;142;50.652;12.216;2022-08-25T01:21:11;17.80;71.30
148;DHT22;142;50.652;12.216;2022-08-25T01:23:39;17.80;71.40
148;DHT22;142;50.652;12.216;2022-08-25T01:26:09;17.80;71.30
148;DHT22;142;50.652;12.216;2022-08-25T01:28:36;17.80;71.20
148;DHT22;142;50.652;12.216;2022-08-25T01:31:23;17.70;71.30
148;DHT22;142;50.652;12.216;2022-08-25T01:33:51;17.70;71.30
148;DHT22;142;50.652;12.216;2022-08-25T01:36:20;17.60;71.30
148;DHT22;142;50.652;12.216;2022-08-25T01:38:48;17.60;71.50
148;DHT22;142;50.652;12.216;2022-08-25T01:41:16;17.60;71.50
148;DHT22;142;50.652;12.216;2022-08-25T01:43:47;17.60;71.50
148;DHT22;142;50.652;12.216;2022-08-25T01:46:14;17.60;71.40
148;DHT22;142;50.652;12.216;2022-08-25T01:48:42;17.50;71.30
148;DHT22;142;50.652;12.216;2022-08-25T01:51:09;17.50;71.50
148;DHT22;142;50.652;12.216;2022-08-25T01:53:38;17.50;71.40
148;DHT22;142;50.652;12.216;2022-08-25T01:56:09;17.50;71.50
148;DHT22;142;50.652;12.216;2022-08-25T01:58:39;17.50;71.20
148;DHT22;142;50.652;12.216;2022-08-25T02:01:09;17.40;71.30
148;DHT22;142;50.652;12.216;2022-08-25T02:03:39;17.40;71.20
148;DHT22;142;50.652;12.216;2022-08-25T02:06:06;17.40;71.40
148;DHT22;142;50.652;12.216;2022-08-25T02:08:33;17.30;71.40
148;DHT22;142;50.652;12.216;2022-08-25T02:11:02;17.30;71.60
148;DHT22;142;50.652;12.216;2022-08-25T02:13:29;17.30;71.50
148;DHT22;142;50.652;12.216;2022-08-25T02:15:58;17.30;71.50
148;DHT22;142;50.652;12.216;2022-08-25T02:18:26;17.30;71.50
148;DHT22;142;50.652;12.216;2022-08-25T02:20:53;17.30;71.50
148;DHT22;142;50.652;12.216;2022-08-25T02:23:20;17.40;71.50
148;DHT22;142;50.652;12.216;2022-08-25T02:25:47;17.30;71.30
148;DHT22;142;50.652;12.216;2022-08-25T02:28:16;17.20;71.40
148;DHT22;142;50.652;12.216;2022-08-25T02:30:44;17.10;71.40
148;DHT22;142;50.652;12.216;2022-08-25T02:33:12;17.10;71.60
148;DHT22;142;50.652;12.216;2022-08-25T02:35:39;17.10;71.90
148;DHT22;142;50.652;12.216;2022-08-25T02:38:06;17.10;71.90
148;DHT22;142;50.652;12.216;2022-08-25T02:40:33;17.10;72.00
148;DHT22;142;50.652;12.216;2022-08-25T02:43:01;17.10;72.00
148;DHT22;142;50.652;12.216;2022-08-25T02:45:29;17.10;72.00
148;DHT22;142;50.652;12.216;2022-08-25T02:47:57;17.10;72.00
148;DHT22;142;50.652;12.216;2022-08-25T02:50:24;17.10;71.90
148;DHT22;142;50.652;12.216;2022-08-25T02:52:51;17.10;71.90
148;DHT22;142;50.652;12.216;2022-08-25T02:55:18;17.10;71.70
148;DHT22;142;50.652;12.216;2022-08-25T02:57:46;17.00;71.70
148;DHT22;142;50.652;12.216;2022-08-25T03:00:15;16.90;71.80
148;DHT22;142;50.652;12.216;2022-08-25T03:02:44;16.90;72.00
148;DHT22;142;50.652;12.216;2022-08-25T03:05:14;16.80;72.00
148;DHT22;142;50.652;12.216;2022-08-25T03:07:41;16.80;72.20
148;DHT22;142;50.652;12.216;2022-08-25T03:10:11;16.80;72.40
148;DHT22;142;50.652;12.216;2022-08-25T03:12:39;16.80;72.40
148;DHT22;142;50.652;12.216;2022-08-25T03:15:07;16.80;72.30
148;DHT22;142;50.652;12.216;2022-08-25T03:17:35;16.80;72.50
148;DHT22;142;50.652;12.216;2022-08-25T03:20:05;16.80;72.50
148;DHT22;142;50.652;12.216;2022-08-25T03:22:33;16.70;72.20
148;DHT22;142;50.652;12.216;2022-08-25T03:25:00;16.70;72.40
148;DHT22;142;50.652;12.216;2022-08-25T03:27:41;16.60;72.60
148;DHT22;142;50.652;12.216;2022-08-25T03:30:09;16.60;72.70
148;DHT22;142;50.652;12.216;2022-08-25T03:32:37;16.60;72.80
148;DHT22;142;50.652;12.216;2022-08-25T03:35:06;16.60;72.80
148;DHT22;142;50.652;12.216;2022-08-25T03:37:33;16.60;72.70
148;DHT22;142;50.652;12.216;2022-08-25T03:40:00;16.60;72.80
148;DHT22;142;50.652;12.216;2022-08-25T03:42:28;16.60;72.80
148;DHT22;142;50.652;12.216;2022-08-25T03:44:55;16.50;72.60
148;DHT22;142;50.652;12.216;2022-08-25T03:47:22;16.50;72.70
148;DHT22;142;50.652;12.216;2022-08-25T03:49:51;16.40;73.00
148;DHT22;142;50.652;12.216;2022-08-25T03:52:21;16.40;73.20
148;DHT22;142;50.652;12.216;2022-08-25T03:54:48;16.40;73.20
148;DHT22;142;50.652;12.216;2022-08-25T03:57:15;16.40;73.40
148;DHT22;142;50.652;12.216;2022-08-25T03:59:42;16.40;73.40
148;DHT22;142;50.652;12.216;2022-08-25T04:02:09;16.40;73.20
148;DHT22;142;50.652;12.216;2022-08-25T04:04:36;16.30;73.10
148;DHT22;142;50.652;12.216;2022-08-25T04:07:04;16.30;73.30
148;DHT22;142;50.652;12.216;2022-08-25T04:09:32;16.30;73.40
148;DHT22;142;50.652;12.216;2022-08-25T04:12:00;16.30;73.80
148;DHT22;142;50.652;12.216;2022-08-25T04:14:27;16.30;73.50
148;DHT22;142;50.652;12.216;2022-08-25T04:16:54;16.40;73.70
148;DHT22;142;50.652;12.216;2022-08-25T04:19:21;16.30;73.50
148;DHT22;142;50.652;12.216;2022-08-25T04:21:48;16.30;73.50
148;DHT22;142;50.652;12.216;2022-08-25T04:24:16;16.30;73.50
148;DHT22;142;50.652;12.216;2022-08-25T04:26:47;16.30;73.40
148;DHT22;142;50.652;12.216;2022-08-25T04:29:17;16.30;73.30
148;DHT22;142;50.652;12.216;2022-08-25T04:31:46;16.30;73.10
148;DHT22;142;50.652;12.216;2022-08-25T04:34:15;16.30;73.30
148;DHT22;142;50.652;12.216;2022-08-25T04:36:41;16.30;73.70
148;DHT22;142;50.652;12.216;2022-08-25T04:39:09;16.40;74.00
148;DHT22;142;50.652;12.216;2022-08-25T04:41:36;16.50;73.80
148;DHT22;142;50.652;12.216;2022-08-25T04:44:07;16.60;73.40
148;DHT22;142;50.652;12.216;2022-08-25T04:46:34;16.70;73.30
148;DHT22;142;50.652;12.216;2022-08-25T04:49:03;16.70;72.80
148;DHT22;142;50.652;12.216;2022-08-25T04:51:32;16.70;72.30
148;DHT22;142;50.652;12.216;2022-08-25T04:54:02;16.80;72.20
148;DHT22;142;50.652;12.216;2022-08-25T04:56:30;16.80;72.00
148;DHT22;142;50.652;12.216;2022-08-25T04:59:01;16.90;71.80
148;DHT22;142;50.652;12.216;2022-08-25T05:01:30;16.80;71.40
148;DHT22;142;50.652;12.216;2022-08-25T05:03:59;16.90;71.40
148;DHT22;142;50.652;12.216;2022-08-25T05:06:27;16.90;71.40
148;DHT22;142;50.652;12.216;2022-08-25T05:08:55;17.00;71.20
148;DHT22;142;50.652;12.216;2022-08-25T05:11:24;17.10;71.50
148;DHT22;142;50.652;12.216;2022-08-25T05:13:53;17.10;71.50
148;DHT22;142;50.652;12.216;2022-08-25T05:16:22;17.20;71.60
148;DHT22;142;50.652;12.216;2022-08-25T05:18:51;17.20;71.70
148;DHT22;142;50.652;12.216;2022-08-25T05:21:21;17.30;71.80
148;DHT22;142;50.652;12.216;2022-08-25T05:23:49;17.40;71.80
148;DHT22;142;50.652;12.216;2022-08-25T05:26:19;17.40;71.70
148;DHT22;142;50.652;12.216;2022-08-25T05:28:48;17.40;71.60
148;DHT22;142;50.652;12.216;2022-08-25T05:31:15;17.40;71.90
148;DHT22;142;50.652;12.216;2022-08-25T05:33:43;17.50;72.00
148;DHT22;142;50.652;12.216;2022-08-25T05:36:13;17.70;72.10
148;DHT22;142;50.652;12.216;2022-08-25T05:38:40;17.80;71.90
148;DHT22;142;50.652;12.216;2022-08-25T05:41:09;17.80;71.40
148;DHT22;142;50.652;12.216;2022-08-25T05:43:37;17.80;71.10
148;DHT22;142;50.652;12.216;2022-08-25T05:46:06;17.90;70.90
148;DHT22;142;50.652;12.216;2022-08-25T05:48:33;17.80;70.70
148;DHT22;142;50.652;12.216;2022-08-25T05:51:05;17.80;70.80
148;DHT22;142;50.652;12.216;2022-08-25T05:53:34;17.80;70.90
148;DHT22;142;50.652;12.216;2022-08-25T05:56:02;17.80;71.10
148;DHT22;142;50.652;12.216;2022-08-25T05:58:30;17.80;71.20
148;DHT22;142;50.652;12.216;2022-08-25T06:00:58;17.90;71.40
148;DHT22;142;50.652;12.216;2022-08-25T06:03:47;17.90;70.40
148;DHT22;142;50.652;12.216;2022-08-25T06:06:13;18.00;70.80
148;DHT22;142;50.652;12.216;2022-08-25T06:08:42;18.10;70.90
148;DHT22;142;50.652;12.216;2022-08-25T06:11:09;18.10;70.60
148;DHT22;142;50.652;12.216;2022-08-25T06:13:37;18.20;70.50
148;DHT22;142;50.652;12.216;2022-08-25T06:16:05;18.20;70.10
148;DHT22;142;50.652;12.216;2022-08-25T06:18:32;18.30;70.30
148;DHT22;142;50.652;12.216;2022-08-25T06:21:06;18.40;69.80
148;DHT22;142;50.652;12.216;2022-08-25T06:23:33;18.50;69.30
148;DHT22;142;50.652;12.216;2022-08-25T06:26:02;18.50;69.40
148;DHT22;142;50.652;12.216;2022-08-25T06:28:29;18.60;68.90
148;DHT22;142;50.652;12.216;2022-08-25T06:30:57;18.70;68.60
148;DHT22;142;50.652;12.216;2022-08-25T06:33:25;18.70;68.70
148;DHT22;142;50.652;12.216;2022-08-25T06:35:53;18.80;68.80
148;DHT22;142;50.652;12.216;2022-08-25T06:38:21;19.00;68.70
148;DHT22;142;50.652;12.216;2022-08-25T06:40:48;19.10;68.10
148;DHT22;142;50.652;12.216;2022-08-25T06:43:18;19.10;67.60
148;DHT22;142;50.652;12.216;2022-08-25T06:45:45;19.10;67.80
148;DHT22;142;50.652;12.216;2022-08-25T06:48:13;19.20;68.20
148;DHT22;142;50.652;12.216;2022-08-25T06:50:41;19.30;68.00
148;DHT22;142;50.652;12.216;2022-08-25T06:53:08;19.40;68.10
148;DHT22;142;50.652;12.216;2022-08-25T06:55:35;19.50;67.40
148;DHT22;142;50.652;12.216;2022-08-25T06:58:02;19.60;67.10
148;DHT22;142;50.652;12.216;2022-08-25T07:00:32;19.70;66.60
148;DHT22;142;50.652;12.216;2022-08-25T07:02:59;19.70;66.40
148;DHT22;142;50.652;12.216;2022-08-25T07:05:27;19.70;66.80
148;DHT22;142;50.652;12.216;2022-08-25T07:07:54;19.80;67.10
148;DHT22;142;50.652;12.216;2022-08-25T07:10:21;19.70;67.20
148;DHT22;142;50.652;12.216;2022-08-25T07:12:49;19.90;67.50
148;DHT22;142;50.652;12.216;2022-08-25T07:15:16;20.00;67.20
148;DHT22;142;50.652;12.216;2022-08-25T07:17:49;20.10;67.20
148;DHT22;142;50.652;12.216;2022-08-25T07:20:16;20.30;66.80
148;DHT22;142;50.652;12.216;2022-08-25T07:22:44;20.40;66.60
148;DHT22;142;50.652;12.216;2022-08-25T07:25:11;20.50;66.20
148;DHT22;142;50.652;12.216;2022-08-25T07:27:38;20.60;65.70
148;DHT22;142;50.652;12.216;2022-08-25T07:30:07;20.60;65.80
148;DHT22;142;50.652;12.216;2022-08-25T07:32:34;20.60;66.00
148;DHT22;142;50.652;12.216;2022-08-25T07:35:03;20.60;66.20
148;DHT22;142;50.652;12.216;2022-08-25T07:37:42;20.70;66.20
148;DHT22;142;50.652;12.216;2022-08-25T07:40:12;20.80;65.60
148;DHT22;142;50.652;12.216;2022-08-25T07:42:40;21.00;65.80
148;DHT22;142;50.652;12.216;2022-08-25T07:45:09;21.20;65.10
148;DHT22;142;50.652;12.216;2022-08-25T07:47:36;21.40;64.40
148;DHT22;142;50.652;12.216;2022-08-25T07:50:08;21.60;63.80
148;DHT22;142;50.652;12.216;2022-08-25T07:52:36;21.80;63.50
148;DHT22;142;50.652;12.216;2022-08-25T07:55:04;21.90;62.70
148;DHT22;142;50.652;12.216;2022-08-25T07:57:31;21.90;62.20
148;DHT22;142;50.652;12.216;2022-08-25T07:59:58;22.00;62.40
148;DHT22;142;50.652;12.216;2022-08-25T08:02:25;22.10;62.30
148;DHT22;142;50.652;12.216;2022-08-25T08:04:53;22.10;61.50
148;DHT22;142;50.652;12.216;2022-08-25T08:07:24;22.20;61.90
148;DHT22;142;50.652;12.216;2022-08-25T08:09:54;22.30;61.60
148;DHT22;142;50.652;12.216;2022-08-25T08:12:22;22.50;61.30
148;DHT22;142;50.652;12.216;2022-08-25T08:14:49;22.70;60.50
148;DHT22;142;50.652;12.216;2022-08-25T08:17:16;22.80;60.00
148;DHT22;142;50.652;12.216;2022-08-25T08:19:44;22.90;59.90
148;DHT22;142;50.652;12.216;2022-08-25T08:22:13;23.10;59.60
148;DHT22;142;50.652;12.216;2022-08-25T08:24:42;23.20;58.90
148;DHT22;142;50.652;12.216;2022-08-25T08:27:11;23.30;58.90
148;DHT22;142;50.652;12.216;2022-08-25T08:29:40;23.50;58.40
148;DHT22;142;50.652;12.216;2022-08-25T08:32:09;23.60;58.10
148;DHT22;142;50.652;12.216;2022-08-25T08:34:38;23.60;57.50
148;DHT22;142;50.652;12.216;2022-08-25T08:37:07;23.70;57.40
148;DHT22;142;50.652;12.216;2022-08-25T08:39:36;23.80;57.50
148;DHT22;142;50.652;12.216;2022-08-25T08:42:16;23.80;57.00
148;DHT22;142;50.652;12.216;2022-08-25T08:45:01;23.90;56.90
148;DHT22;142;50.652;12.216;2022-08-25T08:47:38;24.00;57.20
148;DHT22;142;50.652;12.216;2022-08-25T08:50:28;24.10;57.00
148;DHT22;142;50.652;12.216;2022-08-25T08:53:00;24.10;56.90
148;DHT22;142;50.652;12.216;2022-08-25T08:55:31;24.20;56.80
148;DHT22;142;50.652;12.216;2022-08-25T08:58:04;24.30;56.70
148;DHT22;142;50.652;12.216;2022-08-25T09:00:32;24.30;56.50
148;DHT22;142;50.652;12.216;2022-08-25T09:03:11;24.30;56.70
148;DHT22;142;50.652;12.216;2022-08-25T09:05:46;24.50;56.40
148;DHT22;142;50.652;12.216;2022-08-25T09:08:15;24.60;55.50
148;DHT22;142;50.652;12.216;2022-08-25T09:10:51;24.80;55.20
148;DHT22;142;50.652;12.216;2022-08-25T09:13:29;24.90;54.50
148;DHT22;142;50.652;12.216;2022-08-25T09:16:03;25.00;54.30
148;DHT22;142;50.652;12.216;2022-08-25T09:18:55;25.20;53.90
148;DHT22;142;50.652;12.216;2022-08-25T09:21:30;25.30;53.60
148;DHT22;142;50.652;12.216;2022-08-25T09:24:14;25.40;52.70
148;DHT22;142;50.652;12.216;2022-08-25T09:26:48;25.40;52.70
148;DHT22;142;50.652;12.216;2022-08-25T09:29:21;25.60;52.60
148;DHT22;142;50.652;12.216;2022-08-25T09:31:51;25.70;53.10
148;DHT22;142;50.652;12.216;2022-08-25T09:34:22;25.80;53.70
148;DHT22;142;50.652;12.216;2022-08-25T09:36:53;25.90;53.50
148;DHT22;142;50.652;12.216;2022-08-25T09:39:21;26.00;53.50
148;DHT22;142;50.652;12.216;2022-08-25T09:41:50;26.00;53.40
148;DHT22;142;50.652;12.216;2022-08-25T09:44:24;26.00;55.10
148;DHT22;142;50.652;12.216;2022-08-25T09:47:02;26.20;55.60
148;DHT22;142;50.652;12.216;2022-08-25T09:49:36;26.30;65.90
148;DHT22;142;50.652;12.216;2022-08-25T09:52:24;26.40;67.30
148;DHT22;142;50.652;12.216;2022-08-25T09:54:52;26.50;68.20
148;DHT22;142;50.652;12.216;2022-08-25T09:57:34;26.50;68.40
148;DHT22;142;50.652;12.216;2022-08-25T10:00:17;26.70;68.40
148;DHT22;142;50.652;12.216;2022-08-25T10:03:03;26.80;68.50
148;DHT22;142;50.652;12.216;2022-08-25T10:05:31;26.80;68.80
148;DHT22;142;50.652;12.216;2022-08-25T10:08:01;26.70;68.90
148;DHT22;142;50.652;12.216;2022-08-25T10:10:31;26.70;68.90
148;DHT22;142;50.652;12.216;2022-08-25T10:12:59;26.70;69.00
148;DHT22;142;50.652;12.216;2022-08-25T10:15:32;26.70;69.00
148;DHT22;142;50.652;12.216;2022-08-25T10:18:22;26.70;71.30
148;DHT22;142;50.652;12.216;2022-08-25T10:21:02;26.80;71.40
148;DHT22;142;50.652;12.216;2022-08-25T10:23:32;26.80;71.30
148;DHT22;142;50.652;12.216;2022-08-25T10:26:03;26.90;71.60
148;DHT22;142;50.652;12.216;2022-08-25T10:28:35;27.10;71.60
148;DHT22;142;50.652;12.216;2022-08-25T10:31:13;27.20;71.90
148;DHT22;142;50.652;12.216;2022-08-25T10:33:50;27.20;80.80
148;DHT22;142;50.652;12.216;2022-08-25T10:36:31;27.30;81.40
148;DHT22;142;50.652;12.216;2022-08-25T10:39:03;27.40;82.90
148;DHT22;142;50.652;12.216;2022-08-25T10:41:45;27.50;82.90
148;DHT22;142;50.652;12.216;2022-08-25T10:44:22;27.60;83.10
148;DHT22;142;50.652;12.216;2022-08-25T10:47:26;27.80;82.80
148;DHT22;142;50.652;12.216;2022-08-25T10:50:04;27.80;82.70
148;DHT22;142;50.652;12.216;2022-08-25T10:52:39;27.90;83.00
148;DHT22;142;50.652;12.216;2022-08-25T10:55:16;28.00;83.10
148;DHT22;142;50.652;12.216;2022-08-25T10:57:53;28.00;82.90
148;DHT22;142;50.652;12.216;2022-08-25T11:00:24;28.10;82.20
148;DHT22;142;50.652;12.216;2022-08-25T11:03:19;28.10;82.50
148;DHT22;142;50.652;12.216;2022-08-25T11:05:54;28.10;82.80
148;DHT22;142;50.652;12.216;2022-08-25T11:08:32;28.10;82.80
148;DHT22;142;50.652;12.216;2022-08-25T11:11:04;28.20;82.90
148;DHT22;142;50.652;12.216;2022-08-25T11:13:40;28.30;82.60
148;DHT22;142;50.652;12.216;2022-08-25T11:16:12;28.30;82.70
148;DHT22;142;50.652;12.216;2022-08-25T11:18:48;28.40;81.90
148;DHT22;142;50.652;12.216;2022-08-25T11:21:19;28.50;81.60
148;DHT22;142;50.652;12.216;2022-08-25T11:23:52;28.60;80.60
148;DHT22;142;50.652;12.216;2022-08-25T11:26:26;28.60;81.20
148;DHT22;142;50.652;12.216;2022-08-25T11:29:03;28.50;82.00
148;DHT22;142;50.652;12.216;2022-08-25T11:31:37;28.50;80.30
148;DHT22;142;50.652;12.216;2022-08-25T11:34:09;28.60;81.00
148;DHT22;142;50.652;12.216;2022-08-25T11:36:42;28.70;80.50
148;DHT22;142;50.652;12.216;2022-08-25T11:39:15;28.70;80.70
148;DHT22;142;50.652;12.216;2022-08-25T11:41:54;28.70;80.70
148;DHT22;142;50.652;12.216;2022-08-25T11:44:45;28.80;80.60
148;DHT22;142;50.652;12.216;2022-08-25T11:47:49;28.90;81.10
148;DHT22;142;50.652;12.216;2022-08-25T11:50:27;29.10;81.10
148;DHT22;142;50.652;12.216;2022-08-25T11:52:58;29.20;80.90
148;DHT22;142;50.652;12.216;2022-08-25T11:55:45;29.20;79.90
148;DHT22;142;50.652;12.216;2022-08-25T11:58:24;29.30;80.60
148;DHT22;142;50.652;12.216;2022-08-25T12:00:55;29.40;79.90
148;DHT22;142;50.652;12.216;2022-08-25T12:03:51;29.50;79.20
148;DHT22;142;50.652;12.216;2022-08-25T12:06:26;29.60;78.40
148;DHT22;142;50.652;12.216;2022-08-25T12:09:18;29.70;79.80
148;DHT22;142;50.652;12.216;2022-08-25T12:11:52;29.50;80.60
148;DHT22;142;50.652;12.216;2022-08-25T12:14:40;29.30;80.70
148;DHT22;142;50.652;12.216;2022-08-25T12:17:22;29.20;80.40
148;DHT22;142;50.652;12.216;2022-08-25T12:19:52;29.20;80.40
148;DHT22;142;50.652;12.216;2022-08-25T12:25:41;29.20;80.00
148;DHT22;142;50.652;12.216;2022-08-25T12:28:30;29.10;79.20
148;DHT22;142;50.652;12.216;2022-08-25T12:31:04;29.00;79.70
148;DHT22;142;50.652;12.216;2022-08-25T12:33:40;29.00;79.60
148;DHT22;142;50.652;12.216;2022-08-25T12:36:10;29.00;78.90
148;DHT22;142;50.652;12.216;2022-08-25T12:38:51;29.10;79.00
148;DHT22;142;50.652;12.216;2022-08-25T12:41:21;29.10;79.00
148;DHT22;142;50.652;12.216;2022-08-25T12:43:51;29.10;79.10
148;DHT22;142;50.652;12.216;2022-08-25T12:46:33;29.10;77.80
148;DHT22;142;50.652;12.216;2022-08-25T12:49:02;29.10;76.90
148;DHT22;142;50.652;12.216;2022-08-25T12:51:52;29.20;77.10
148;DHT22;142;50.652;12.216;2022-08-25T12:54:24;29.30;75.60
148;DHT22;142;50.652;12.216;2022-08-25T12:56:59;29.40;74.60
148;DHT22;142;50.652;12.216;2022-08-25T12:59:34;29.50;73.20
148;DHT22;142;50.652;12.216;2022-08-25T13:02:26;29.60;72.60
148;DHT22;142;50.652;12.216;2022-08-25T13:08:23;29.70;73.50
148;DHT22;142;50.652;12.216;2022-08-25T13:10:56;29.90;73.40
148;DHT22;142;50.652;12.216;2022-08-25T13:13:38;30.10;74.40
148;DHT22;142;50.652;12.216;2022-08-25T13:16:16;30.00;74.50
148;DHT22;142;50.652;12.216;2022-08-25T13:18:44;29.90;75.20
148;DHT22;142;50.652;12.216;2022-08-25T13:21:16;29.70;73.60
148;DHT22;142;50.652;12.216;2022-08-25T13:23:46;29.70;74.20
148;DHT22;142;50.652;12.216;2022-08-25T13:26:16;29.70;74.30
148;DHT22;142;50.652;12.216;2022-08-25T13:28:54;29.70;75.50
148;DHT22;142;50.652;12.216;2022-08-25T13:31:22;29.70;75.90
148;DHT22;142;50.652;12.216;2022-08-25T13:33:54;29.80;75.40
148;DHT22;142;50.652;12.216;2022-08-25T13:36:25;30.10;73.70
148;DHT22;142;50.652;12.216;2022-08-25T13:39:12;30.20;73.40
148;DHT22;142;50.652;12.216;2022-08-25T13:41:44;30.40;72.30
148;DHT22;142;50.652;12.216;2022-08-25T13:44:14;30.40;72.00
148;DHT22;142;50.652;12.216;2022-08-25T13:46:42;30.40;72.50
148;DHT22;142;50.652;12.216;2022-08-25T13:49:10;30.60;72.40
148;DHT22;142;50.652;12.216;2022-08-25T13:51:48;30.70;72.00
148;DHT22;142;50.652;12.216;2022-08-25T13:54:23;30.70;71.40
148;DHT22;142;50.652;12.216;2022-08-25T13:56:54;30.80;71.00
148;DHT22;142;50.652;12.216;2022-08-25T13:59:34;30.90;70.70
148;DHT22;142;50.652;12.216;2022-08-25T14:02:04;30.80;71.70
148;DHT22;142;50.652;12.216;2022-08-25T14:04:44;30.80;71.40
148;DHT22;142;50.652;12.216;2022-08-25T14:07:24;30.70;71.40
148;DHT22;142;50.652;12.216;2022-08-25T14:09:54;30.70;71.10
148;DHT22;142;50.652;12.216;2022-08-25T14:12:47;30.60;71.40
148;DHT22;142;50.652;12.216;2022-08-25T14:15:35;30.40;72.30
148;DHT22;142;50.652;12.216;2022-08-25T14:18:05;30.50;72.70
148;DHT22;142;50.652;12.216;2022-08-25T14:20:34;30.60;72.30
148;DHT22;142;50.652;12.216;2022-08-25T14:23:07;30.60;71.70
148;DHT22;142;50.652;12.216;2022-08-25T14:25:37;30.50;71.90
148;DHT22;142;50.652;12.216;2022-08-25T14:28:11;30.40;72.40
148;DHT22;142;50.652;12.216;2022-08-25T14:30:43;30.30;72.90
148;DHT22;142;50.652;12.216;2022-08-25T14:33:12;30.20;72.80
148;DHT22;142;50.652;12.216;2022-08-25T14:35:42;30.20;73.10
148;DHT22;142;50.652;12.216;2022-08-25T14:38:11;30.20;73.20
148;DHT22;142;50.652;12.216;2022-08-25T14:40:38;30.20;72.70
148;DHT22;142;50.652;12.216;2022-08-25T14:43:06;30.20;72.60
148;DHT22;142;50.652;12.216;2022-08-25T14:45:36;30.20;73.00
148;DHT22;142;50.652;12.216;2022-08-25T14:48:07;30.30;71.80
148;DHT22;142;50.652;12.216;2022-08-25T14:50:36;30.30;71.40
148;DHT22;142;50.652;12.216;2022-08-25T14:53:04;30.40;71.30
148;DHT22;142;50.652;12.216;2022-08-25T14:55:31;30.40;70.40
148;DHT22;142;50.652;12.216;2022-08-25T14:57:58;30.40;71.30
148;DHT22;142;50.652;12.216;2022-08-25T15:00:25;30.60;70.20
148;DHT22;142;50.652;12.216;2022-08-25T15:02:53;30.60;69.90
148;DHT22;142;50.652;12.216;2022-08-25T15:05:23;30.70;69.30
148;DHT22;142;50.652;12.216;2022-08-25T15:07:52;30.80;68.60
148;DHT22;142;50.652;12.216;2022-08-25T15:10:37;30.80;69.00
148;DHT22;142;50.652;12.216;2022-08-25T15:13:05;30.90;69.10
148;DHT22;142;50.652;12.216;2022-08-25T15:15:36;31.00;70.60
148;DHT22;142;50.652;12.216;2022-08-25T15:18:04;30.90;71.90
148;DHT22;142;50.652;12.216;2022-08-25T15:20:32;30.90;72.20
148;DHT22;142;50.652;12.216;2022-08-25T15:23:00;31.00;72.10
148;DHT22;142;50.652;12.216;2022-08-25T15:25:27;30.90;72.20
148;DHT22;142;50.652;12.216;2022-08-25T15:27:54;30.90;71.90
148;DHT22;142;50.652;12.216;2022-08-25T15:30:22;30.80;72.90
148;DHT22;142;50.652;12.216;2022-08-25T15:32:49;30.80;72.80
148;DHT22;142;50.652;12.216;2022-08-25T15:35:16;30.90;73.00
148;DHT22;142;50.652;12.216;2022-08-25T15:37:45;30.80;72.10
148;DHT22;142;50.652;12.216;2022-08-25T15:40:13;30.70;71.70
148;DHT22;142;50.652;12.216;2022-08-25T15:42:40;30.70;72.20
148;DHT22;142;50.652;12.216;2022-08-25T15:45:09;30.50;72.20
148;DHT22;142;50.652;12.216;2022-08-25T15:47:37;30.50;72.50
148;DHT22;142;50.652;12.216;2022-08-25T15:50:06;30.50;72.60
148;DHT22;142;50.652;12.216;2022-08-25T15:52:35;30.40;73.30
148;DHT22;142;50.652;12.216;2022-08-25T15:55:05;30.40;73.70
148;DHT22;142;50.652;12.216;2022-08-25T15:57:32;30.30;74.10
148;DHT22;142;50.652;12.216;2022-08-25T16:00:00;30.20;74.50
148;DHT22;142;50.652;12.216;2022-08-25T16:02:27;30.10;75.20
148;DHT22;142;50.652;12.216;2022-08-25T16:04:57;30.10;75.50
148;DHT22;142;50.652;12.216;2022-08-25T16:07:24;30.00;75.70
148;DHT22;142;50.652;12.216;2022-08-25T16:09:54;29.90;76.30
148;DHT22;142;50.652;12.216;2022-08-25T16:12:22;29.80;76.70
148;DHT22;142;50.652;12.216;2022-08-25T16:14:50;29.70;77.20
148;DHT22;142;50.652;12.216;2022-08-25T16:17:18;29.70;77.20
148;DHT22;142;50.652;12.216;2022-08-25T16:19:46;29.60;77.60
148;DHT22;142;50.652;12.216;2022-08-25T16:22:13;29.60;77.30
148;DHT22;142;50.652;12.216;2022-08-25T16:24:42;29.50;77.80
148;DHT22;142;50.652;12.216;2022-08-25T16:27:10;29.50;78.20
148;DHT22;142;50.652;12.216;2022-08-25T16:29:40;29.50;78.30
148;DHT22;142;50.652;12.216;2022-08-25T16:32:10;29.50;78.50
148;DHT22;142;50.652;12.216;2022-08-25T16:34:37;29.50;78.60
148;DHT22;142;50.652;12.216;2022-08-25T16:37:04;29.50;78.60
148;DHT22;142;50.652;12.216;2022-08-25T16:39:31;29.50;79.10
148;DHT22;142;50.652;12.216;2022-08-25T16:41:58;29.60;79.10
148;DHT22;142;50.652;12.216;2022-08-25T16:44:26;29.70;78.10
148;DHT22;142;50.652;12.216;2022-08-25T16:46:54;29.80;78.00
148;DHT22;142;50.652;12.216;2022-08-25T16:49:22;29.90;77.70